sensor_id;sensor_type;location;lat;lon;timestamp;P1;durP1;ratioP1;P2;durP2;ratioP2
10769;SDS011;5437;50.852;4.438;2023-06-22T00:01:50;2.10;;;1.88;;
10769;SDS011;5437;50.852;4.438;2023-06-22T00:04:16;2.00;;;1.80;;
10769;SDS011;5437;50.852;4.438;2023-06-22T00:06:42;2.40;;;1.98;;
10769;SDS011;5437;50.852;4.438;2023-06-22T00:09:09;2.03;;;1.80;;
10769;SDS011;5437;50.852;4.438;2023-06-22T00:11:36;2.00;;;1.80;;
10769;SDS011;5437;50.852;4.438;2023-06-22T00:14:02;2.63;;;2.10;;
10769;SDS011;5437;50.852;4.438;2023-06-22T00:16:29;2.58;;;1.95;;
10769;SDS011;5437;50.852;4.438;2023-06-22T00:18:55;2.55;;;1.80;;
10769;SDS011;5437;50.852;4.438;2023-06-22T00:21:25;2.15;;;1.80;;
10769;SDS011;5437;50.852;4.438;2023-06-22T00:23:51;1.83;;;1.73;;
10769;SDS011;5437;50.852;4.438;2023-06-22T00:26:17;1.75;;;1.65;;
10769;SDS011;5437;50.852;4.438;2023-06-22T00:28:43;1.98;;;1.73;;
10769;SDS011;5437;50.852;4.438;2023-06-22T00:31:09;3.25;;;1.95;;
10769;SDS011;5437;50.852;4.438;2023-06-22T00:33:39;2.17;;;2.00;;
10769;SDS011;5437;50.852;4.438;2023-06-22T00:36:05;2.20;;;1.98;;
10769;SDS011;5437;50.852;4.438;2023-06-22T00:38:32;2.88;;;2.28;;
10769;SDS011;5437;50.852;4.438;2023-06-22T00:40:59;2.40;;;2.00;;
10769;SDS011;5437;50.852;4.438;2023-06-22T00:43:25;2.20;;;2.00;;
10769;SDS011;5437;50.852;4.438;2023-06-22T00:45:51;2.80;;;2.35;;
10769;SDS011;5437;50.852;4.438;2023-06-22T00:48:17;2.80;;;2.45;;
10769;SDS011;5437;50.852;4.438;2023-06-22T00:50:43;3.20;;;2.33;;
10769;SDS011;5437;50.852;4.438;2023-06-22T00:53:10;2.58;;;2.15;;
10769;SDS011;5437;50.852;4.438;2023-06-22T00:55:39;2.90;;;2.30;;
10769;SDS011;5437;50.852;4.438;2023-06-22T00:58:08;3.53;;;2.15;;
10769;SDS011;5437;50.852;4.438;2023-06-22T01:00:38;2.97;;;2.28;;
10769;SDS011;5437;50.852;4.438;2023-06-22T01:03:06;2.42;;;2.15;;
10769;SDS011;5437;50.852;4.438;2023-06-22T01:05:34;2.80;;;2.47;;
10769;SDS011;5437;50.852;4.438;2023-06-22T01:08:05;2.15;;;2.00;;
10769;SDS011;5437;50.852;4.438;2023-06-22T01:10:43;3.28;;;2.42;;
10769;SDS011;5437;50.852;4.438;2023-06-22T01:13:15;3.05;;;2.35;;
10769;SDS011;5437;50.852;4.438;2023-06-22T01:18:27;2.97;;;2.15;;
10769;SDS011;5437;50.852;4.438;2023-06-22T01:20:54;2.75;;;2.22;;
10769;SDS011;5437;50.852;4.438;2023-06-22T01:26:22;4.40;;;2.90;;
10769;SDS011;5437;50.852;4.438;2023-06-22T01:28:53;3.58;;;2.60;;
10769;SDS011;5437;50.852;4.438;2023-06-22T01:31:20;3.22;;;2.40;;
10769;SDS011;5437;50.852;4.438;2023-06-22T01:33:57;3.47;;;2.70;;
10769;SDS011;5437;50.852;4.438;2023-06-22T01:36:24;3.63;;;2.88;;
10769;SDS011;5437;50.852;4.438;2023-06-22T01:38:51;2.85;;;2.50;;
10769;SDS011;5437;50.852;4.438;2023-06-22T01:41:20;3.85;;;2.83;;
10769;SDS011;5437;50.852;4.438;2023-06-22T01:43:46;3.50;;;2.70;;
10769;SDS011;5437;50.852;4.438;2023-06-22T01:46:13;2.47;;;2.25;;
10769;SDS011;5437;50.852;4.438;2023-06-22T01:48:40;3.13;;;2.55;;
10769;SDS011;5437;50.852;4.438;2023-06-22T01:51:06;4.82;;;3.05;;
10769;SDS011;5437;50.852;4.438;2023-06-22T01:53:33;2.85;;;2.53;;
10769;SDS011;5437;50.852;4.438;2023-06-22T01:56:02;3.38;;;2.80;;
10769;SDS011;5437;50.852;4.438;2023-06-22T01:58:29;2.88;;;2.47;;
10769;SDS011;5437;50.852;4.438;2023-06-22T02:01:00;3.20;;;2.65;;
10769;SDS011;5437;50.852;4.438;2023-06-22T02:03:30;2.63;;;2.15;;
10769;SDS011;5437;50.852;4.438;2023-06-22T02:06:08;2.65;;;2.35;;
10769;SDS011;5437;50.852;4.438;2023-06-22T02:08:49;3.90;;;2.97;;
10769;SDS011;5437;50.852;4.438;2023-06-22T02:11:18;3.63;;;2.85;;
10769;SDS011;5437;50.852;4.438;2023-06-22T02:13:45;3.85;;;2.70;;
10769;SDS011;5437;50.852;4.438;2023-06-22T02:16:12;3.30;;;2.63;;
10769;SDS011;5437;50.852;4.438;2023-06-22T02:18:48;3.83;;;2.92;;
10769;SDS011;5437;50.852;4.438;2023-06-22T02:21:20;2.63;;;2.20;;
10769;SDS011;5437;50.852;4.438;2023-06-22T02:23:46;3.15;;;2.50;;
10769;SDS011;5437;50.852;4.438;2023-06-22T02:26:12;4.65;;;2.50;;
10769;SDS011;5437;50.852;4.438;2023-06-22T02:28:41;4.07;;;3.13;;
10769;SDS011;5437;50.852;4.438;2023-06-22T02:31:08;4.07;;;2.70;;
10769;SDS011;5437;50.852;4.438;2023-06-22T02:33:34;3.70;;;2.90;;
10769;SDS011;5437;50.852;4.438;2023-06-22T02:36:00;3.15;;;2.63;;
10769;SDS011;5437;50.852;4.438;2023-06-22T02:38:30;4.40;;;3.17;;
10769;SDS011;5437;50.852;4.438;2023-06-22T02:41:02;3.53;;;2.83;;
10769;SDS011;5437;50.852;4.438;2023-06-22T02:43:28;4.07;;;2.85;;
10769;SDS011;5437;50.852;4.438;2023-06-22T02:45:54;3.45;;;2.63;;
10769;SDS011;5437;50.852;4.438;2023-06-22T02:48:23;3.72;;;2.67;;
10769;SDS011;5437;50.852;4.438;2023-06-22T02:50:53;4.15;;;3.17;;
10769;SDS011;5437;50.852;4.438;2023-06-22T02:53:19;4.82;;;3.42;;
10769;SDS011;5437;50.852;4.438;2023-06-22T02:55:45;3.45;;;2.97;;
10769;SDS011;5437;50.852;4.438;2023-06-22T02:58:11;3.28;;;2.80;;
10769;SDS011;5437;50.852;4.438;2023-06-22T03:00:38;3.78;;;3.25;;
10769;SDS011;5437;50.852;4.438;2023-06-22T03:03:04;3.20;;;2.90;;
10769;SDS011;5437;50.852;4.438;2023-06-22T03:05:30;4.15;;;2.97;;
10769;SDS011;5437;50.852;4.438;2023-06-22T03:07:57;4.32;;;3.25;;
10769;SDS011;5437;50.852;4.438;2023-06-22T03:10:24;3.60;;;2.78;;
10769;SDS011;5437;50.852;4.438;2023-06-22T03:12:54;3.83;;;2.88;;
10769;SDS011;5437;50.852;4.438;2023-06-22T03:15:21;3.47;;;2.90;;
10769;SDS011;5437;50.852;4.438;2023-06-22T03:17:47;3.30;;;2.97;;
10769;SDS011;5437;50.852;4.438;2023-06-22T03:20:13;4.25;;;3.17;;
10769;SDS011;5437;50.852;4.438;2023-06-22T03:22:39;2.60;;;2.40;;
10769;SDS011;5437;50.852;4.438;2023-06-22T03:25:06;3.55;;;2.63;;
10769;SDS011;5437;50.852;4.438;2023-06-22T03:27:35;3.42;;;2.65;;
10769;SDS011;5437;50.852;4.438;2023-06-22T03:30:02;2.92;;;2.50;;
10769;SDS011;5437;50.852;4.438;2023-06-22T03:32:28;4.53;;;3.03;;
10769;SDS011;5437;50.852;4.438;2023-06-22T03:34:54;4.22;;;2.85;;
10769;SDS011;5437;50.852;4.438;2023-06-22T03:37:23;3.83;;;3.03;;
10769;SDS011;5437;50.852;4.438;2023-06-22T03:39:50;5.88;;;3.33;;
10769;SDS011;5437;50.852;4.438;2023-06-22T03:42:17;4.13;;;3.10;;
10769;SDS011;5437;50.852;4.438;2023-06-22T03:44:43;4.40;;;3.40;;
10769;SDS011;5437;50.852;4.438;2023-06-22T03:47:09;3.47;;;2.90;;
10769;SDS011;5437;50.852;4.438;2023-06-22T03:49:36;3.50;;;3.15;;
10769;SDS011;5437;50.852;4.438;2023-06-22T03:52:02;4.80;;;3.00;;
10769;SDS011;5437;50.852;4.438;2023-06-22T03:54:29;3.50;;;2.95;;
10769;SDS011;5437;50.852;4.438;2023-06-22T03:56:56;4.97;;;3.15;;
10769;SDS011;5437;50.852;4.438;2023-06-22T03:59:23;3.95;;;3.15;;
10769;SDS011;5437;50.852;4.438;2023-06-22T04:01:49;3.95;;;2.88;;
10769;SDS011;5437;50.852;4.438;2023-06-22T04:04:15;3.65;;;2.90;;
10769;SDS011;5437;50.852;4.438;2023-06-22T04:06:42;4.95;;;3.40;;
10769;SDS011;5437;50.852;4.438;2023-06-22T04:09:08;5.35;;;3.42;;
10769;SDS011;5437;50.852;4.438;2023-06-22T04:11:34;4.28;;;3.05;;
10769;SDS011;5437;50.852;4.438;2023-06-22T04:14:00;6.40;;;3.50;;
10769;SDS011;5437;50.852;4.438;2023-06-22T04:16:26;4.60;;;3.55;;
10769;SDS011;5437;50.852;4.438;2023-06-22T04:18:52;4.88;;;3.15;;
10769;SDS011;5437;50.852;4.438;2023-06-22T04:21:19;6.03;;;3.60;;
10769;SDS011;5437;50.852;4.438;2023-06-22T04:23:45;4.80;;;3.70;;
10769;SDS011;5437;50.852;4.438;2023-06-22T04:26:12;4.20;;;3.58;;
10769;SDS011;5437;50.852;4.438;2023-06-22T04:28:39;4.90;;;3.47;;
10769;SDS011;5437;50.852;4.438;2023-06-22T04:31:05;3.95;;;3.22;;
10769;SDS011;5437;50.852;4.438;2023-06-22T04:33:31;4.65;;;2.97;;
10769;SDS011;5437;50.852;4.438;2023-06-22T04:35:58;5.22;;;3.78;;
10769;SDS011;5437;50.852;4.438;2023-06-22T04:38:26;4.32;;;3.50;;
10769;SDS011;5437;50.852;4.438;2023-06-22T04:40:52;5.13;;;3.75;;
10769;SDS011;5437;50.852;4.438;2023-06-22T04:43:19;4.45;;;3.28;;
10769;SDS011;5437;50.852;4.438;2023-06-22T04:45:45;5.88;;;3.75;;
10769;SDS011;5437;50.852;4.438;2023-06-22T04:48:11;5.53;;;3.75;;
10769;SDS011;5437;50.852;4.438;2023-06-22T04:50:40;3.95;;;3.22;;
10769;SDS011;5437;50.852;4.438;2023-06-22T04:53:06;4.57;;;3.78;;
10769;SDS011;5437;50.852;4.438;2023-06-22T04:55:34;4.53;;;3.78;;
10769;SDS011;5437;50.852;4.438;2023-06-22T04:58:02;5.50;;;4.07;;
10769;SDS011;5437;50.852;4.438;2023-06-22T05:00:30;5.72;;;3.67;;
10769;SDS011;5437;50.852;4.438;2023-06-22T05:02:56;4.70;;;3.70;;
10769;SDS011;5437;50.852;4.438;2023-06-22T05:05:23;4.93;;;3.50;;
10769;SDS011;5437;50.852;4.438;2023-06-22T05:07:50;4.70;;;4.20;;
10769;SDS011;5437;50.852;4.438;2023-06-22T05:10:18;4.93;;;3.90;;
10769;SDS011;5437;50.852;4.438;2023-06-22T05:12:46;5.68;;;3.95;;
10769;SDS011;5437;50.852;4.438;2023-06-22T05:15:12;5.80;;;4.35;;
10769;SDS011;5437;50.852;4.438;2023-06-22T05:17:38;7.13;;;4.47;;
10769;SDS011;5437;50.852;4.438;2023-06-22T05:20:13;5.40;;;4.13;;
10769;SDS011;5437;50.852;4.438;2023-06-22T05:22:43;5.63;;;3.83;;
10769;SDS011;5437;50.852;4.438;2023-06-22T05:25:09;5.85;;;4.25;;
10769;SDS011;5437;50.852;4.438;2023-06-22T05:27:36;5.75;;;4.32;;
10769;SDS011;5437;50.852;4.438;2023-06-22T05:30:16;5.25;;;4.10;;
10769;SDS011;5437;50.852;4.438;2023-06-22T05:32:43;7.65;;;5.13;;
10769;SDS011;5437;50.852;4.438;2023-06-22T05:35:09;8.18;;;4.85;;
10769;SDS011;5437;50.852;4.438;2023-06-22T05:37:35;7.28;;;5.05;;
10769;SDS011;5437;50.852;4.438;2023-06-22T05:40:02;6.72;;;5.30;;
10769;SDS011;5437;50.852;4.438;2023-06-22T05:42:28;7.05;;;4.82;;
10769;SDS011;5437;50.852;4.438;2023-06-22T05:44:54;7.68;;;5.40;;
10769;SDS011;5437;50.852;4.438;2023-06-22T05:47:23;6.88;;;5.07;;
10769;SDS011;5437;50.852;4.438;2023-06-22T05:49:49;7.45;;;5.15;;
10769;SDS011;5437;50.852;4.438;2023-06-22T05:52:21;8.27;;;5.32;;
10769;SDS011;5437;50.852;4.438;2023-06-22T05:54:47;7.10;;;4.78;;
10769;SDS011;5437;50.852;4.438;2023-06-22T05:57:13;7.88;;;5.43;;
10769;SDS011;5437;50.852;4.438;2023-06-22T05:59:39;7.22;;;5.75;;
10769;SDS011;5437;50.852;4.438;2023-06-22T06:02:05;8.48;;;6.10;;
10769;SDS011;5437;50.852;4.438;2023-06-22T06:04:31;7.93;;;6.13;;
10769;SDS011;5437;50.852;4.438;2023-06-22T06:06:57;9.18;;;5.88;;
10769;SDS011;5437;50.852;4.438;2023-06-22T06:09:24;7.88;;;5.93;;
10769;SDS011;5437;50.852;4.438;2023-06-22T06:11:50;9.00;;;6.45;;
10769;SDS011;5437;50.852;4.438;2023-06-22T06:14:16;8.10;;;6.43;;
10769;SDS011;5437;50.852;4.438;2023-06-22T06:16:45;8.70;;;6.53;;
10769;SDS011;5437;50.852;4.438;2023-06-22T06:19:11;8.40;;;6.30;;
10769;SDS011;5437;50.852;4.438;2023-06-22T06:21:37;9.65;;;6.22;;
10769;SDS011;5437;50.852;4.438;2023-06-22T06:24:03;9.82;;;6.32;;
10769;SDS011;5437;50.852;4.438;2023-06-22T06:26:29;8.88;;;6.45;;
10769;SDS011;5437;50.852;4.438;2023-06-22T06:28:59;9.70;;;7.38;;
10769;SDS011;5437;50.852;4.438;2023-06-22T06:31:26;9.15;;;6.88;;
10769;SDS011;5437;50.852;4.438;2023-06-22T06:33:53;11.13;;;6.93;;
10769;SDS011;5437;50.852;4.438;2023-06-22T06:36:19;9.00;;;7.45;;
10769;SDS011;5437;50.852;4.438;2023-06-22T06:38:45;8.93;;;7.03;;
10769;SDS011;5437;50.852;4.438;2023-06-22T06:41:13;9.48;;;7.30;;
10769;SDS011;5437;50.852;4.438;2023-06-22T06:43:39;10.23;;;7.10;;
10769;SDS011;5437;50.852;4.438;2023-06-22T06:46:05;10.18;;;7.25;;
10769;SDS011;5437;50.852;4.438;2023-06-22T06:48:31;9.93;;;7.40;;
10769;SDS011;5437;50.852;4.438;2023-06-22T06:50:57;10.30;;;7.40;;
10769;SDS011;5437;50.852;4.438;2023-06-22T06:53:23;9.63;;;7.07;;
10769;SDS011;5437;50.852;4.438;2023-06-22T06:55:49;10.55;;;7.53;;
10769;SDS011;5437;50.852;4.438;2023-06-22T06:58:16;10.70;;;7.35;;
10769;SDS011;5437;50.852;4.438;2023-06-22T07:00:42;13.05;;;8.02;;
10769;SDS011;5437;50.852;4.438;2023-06-22T07:03:08;12.80;;;8.45;;
10769;SDS011;5437;50.852;4.438;2023-06-22T07:05:35;11.00;;;7.85;;
10769;SDS011;5437;50.852;4.438;2023-06-22T07:08:01;11.35;;;8.02;;
10769;SDS011;5437;50.852;4.438;2023-06-22T07:10:28;10.32;;;7.85;;
10769;SDS011;5437;50.852;4.438;2023-06-22T07:12:55;11.18;;;7.57;;
10769;SDS011;5437;50.852;4.438;2023-06-22T07:15:22;13.10;;;8.60;;
10769;SDS011;5437;50.852;4.438;2023-06-22T07:17:48;12.40;;;8.77;;
10769;SDS011;5437;50.852;4.438;2023-06-22T07:20:15;12.65;;;8.35;;
10769;SDS011;5437;50.852;4.438;2023-06-22T07:22:42;12.27;;;7.85;;
10769;SDS011;5437;50.852;4.438;2023-06-22T07:25:09;12.82;;;8.18;;
10769;SDS011;5437;50.852;4.438;2023-06-22T07:27:39;12.63;;;8.52;;
10769;SDS011;5437;50.852;4.438;2023-06-22T07:30:09;10.65;;;7.57;;
10769;SDS011;5437;50.852;4.438;2023-06-22T07:32:36;10.85;;;8.20;;
10769;SDS011;5437;50.852;4.438;2023-06-22T07:35:02;12.13;;;8.63;;
10769;SDS011;5437;50.852;4.438;2023-06-22T07:37:29;12.02;;;8.38;;
10769;SDS011;5437;50.852;4.438;2023-06-22T07:39:56;11.60;;;8.45;;
10769;SDS011;5437;50.852;4.438;2023-06-22T07:42:26;10.63;;;7.93;;
10769;SDS011;5437;50.852;4.438;2023-06-22T07:44:53;10.10;;;7.55;;
10769;SDS011;5437;50.852;4.438;2023-06-22T07:47:19;11.65;;;7.65;;
10769;SDS011;5437;50.852;4.438;2023-06-22T07:49:50;11.07;;;7.85;;
10769;SDS011;5437;50.852;4.438;2023-06-22T07:52:16;10.95;;;7.85;;
10769;SDS011;5437;50.852;4.438;2023-06-22T07:54:42;9.93;;;7.55;;
10769;SDS011;5437;50.852;4.438;2023-06-22T07:57:09;11.02;;;8.07;;
10769;SDS011;5437;50.852;4.438;2023-06-22T07:59:35;11.30;;;8.32;;
10769;SDS011;5437;50.852;4.438;2023-06-22T08:02:01;10.85;;;8.20;;
10769;SDS011;5437;50.852;4.438;2023-06-22T08:04:28;8.82;;;7.35;;
10769;SDS011;5437;50.852;4.438;2023-06-22T08:06:55;11.25;;;7.63;;
10769;SDS011;5437;50.852;4.438;2023-06-22T08:09:22;11.27;;;7.45;;
10769;SDS011;5437;50.852;4.438;2023-06-22T08:11:48;10.65;;;7.43;;
10769;SDS011;5437;50.852;4.438;2023-06-22T08:14:14;9.60;;;7.88;;
10769;SDS011;5437;50.852;4.438;2023-06-22T08:16:41;10.13;;;7.68;;
10769;SDS011;5437;50.852;4.438;2023-06-22T08:19:07;11.32;;;7.45;;
10769;SDS011;5437;50.852;4.438;2023-06-22T08:21:33;11.02;;;8.77;;
10769;SDS011;5437;50.852;4.438;2023-06-22T08:23:59;11.15;;;7.97;;
10769;SDS011;5437;50.852;4.438;2023-06-22T08:26:25;11.63;;;8.15;;
10769;SDS011;5437;50.852;4.438;2023-06-22T08:28:51;9.38;;;7.65;;
10769;SDS011;5437;50.852;4.438;2023-06-22T08:31:18;9.80;;;7.90;;
10769;SDS011;5437;50.852;4.438;2023-06-22T08:33:44;11.10;;;8.00;;
10769;SDS011;5437;50.852;4.438;2023-06-22T08:36:11;11.13;;;7.90;;
10769;SDS011;5437;50.852;4.438;2023-06-22T08:38:38;11.68;;;8.10;;
10769;SDS011;5437;50.852;4.438;2023-06-22T08:41:04;9.98;;;7.95;;
10769;SDS011;5437;50.852;4.438;2023-06-22T08:43:30;11.20;;;7.47;;
10769;SDS011;5437;50.852;4.438;2023-06-22T08:45:56;10.27;;;7.78;;
10769;SDS011;5437;50.852;4.438;2023-06-22T08:48:23;9.50;;;7.57;;
10769;SDS011;5437;50.852;4.438;2023-06-22T08:50:49;10.70;;;7.85;;
10769;SDS011;5437;50.852;4.438;2023-06-22T08:53:15;10.10;;;7.47;;
10769;SDS011;5437;50.852;4.438;2023-06-22T08:55:41;9.07;;;7.05;;
10769;SDS011;5437;50.852;4.438;2023-06-22T08:58:07;11.23;;;7.10;;
10769;SDS011;5437;50.852;4.438;2023-06-22T09:00:33;9.32;;;7.90;;
10769;SDS011;5437;50.852;4.438;2023-06-22T09:03:00;10.80;;;7.35;;
10769;SDS011;5437;50.852;4.438;2023-06-22T09:05:26;9.85;;;7.55;;
10769;SDS011;5437;50.852;4.438;2023-06-22T09:07:52;10.77;;;7.05;;
10769;SDS011;5437;50.852;4.438;2023-06-22T09:10:22;9.20;;;7.28;;
10769;SDS011;5437;50.852;4.438;2023-06-22T09:12:48;10.52;;;7.70;;
10769;SDS011;5437;50.852;4.438;2023-06-22T09:15:15;12.48;;;8.43;;
10769;SDS011;5437;50.852;4.438;2023-06-22T09:17:41;10.27;;;7.88;;
10769;SDS011;5437;50.852;4.438;2023-06-22T09:20:07;11.60;;;7.72;;
10769;SDS011;5437;50.852;4.438;2023-06-22T09:22:35;9.23;;;7.80;;
10769;SDS011;5437;50.852;4.438;2023-06-22T09:25:02;11.45;;;7.60;;
10769;SDS011;5437;50.852;4.438;2023-06-22T09:27:28;9.32;;;7.47;;
10769;SDS011;5437;50.852;4.438;2023-06-22T09:29:57;9.57;;;7.13;;
10769;SDS011;5437;50.852;4.438;2023-06-22T09:32:35;9.38;;;7.40;;
10769;SDS011;5437;50.852;4.438;2023-06-22T09:35:03;9.93;;;7.75;;
10769;SDS011;5437;50.852;4.438;2023-06-22T09:37:34;9.68;;;6.97;;
10769;SDS011;5437;50.852;4.438;2023-06-22T09:40:04;9.90;;;7.40;;
10769;SDS011;5437;50.852;4.438;2023-06-22T09:42:38;9.13;;;6.88;;
10769;SDS011;5437;50.852;4.438;2023-06-22T09:45:05;7.53;;;6.38;;
10769;SDS011;5437;50.852;4.438;2023-06-22T09:47:31;10.85;;;6.82;;
10769;SDS011;5437;50.852;4.438;2023-06-22T09:50:06;9.38;;;6.22;;
10769;SDS011;5437;50.852;4.438;2023-06-22T09:55:22;8.57;;;6.20;;
10769;SDS011;5437;50.852;4.438;2023-06-22T09:57:51;7.88;;;6.38;;
10769;SDS011;5437;50.852;4.438;2023-06-22T10:00:17;8.13;;;6.45;;
10769;SDS011;5437;50.852;4.438;2023-06-22T10:02:44;7.43;;;6.25;;
10769;SDS011;5437;50.852;4.438;2023-06-22T10:05:18;9.10;;;6.28;;
10769;SDS011;5437;50.852;4.438;2023-06-22T10:07:47;8.38;;;6.07;;
10769;SDS011;5437;50.852;4.438;2023-06-22T10:10:13;7.57;;;5.72;;
10769;SDS011;5437;50.852;4.438;2023-06-22T10:12:54;7.03;;;5.80;;
10769;SDS011;5437;50.852;4.438;2023-06-22T10:15:22;11.18;;;6.10;;
10769;SDS011;5437;50.852;4.438;2023-06-22T10:17:48;9.80;;;6.60;;
10769;SDS011;5437;50.852;4.438;2023-06-22T10:20:17;7.40;;;6.05;;
10769;SDS011;5437;50.852;4.438;2023-06-22T10:22:44;8.73;;;6.85;;
10769;SDS011;5437;50.852;4.438;2023-06-22T10:25:11;8.95;;;6.70;;
10769;SDS011;5437;50.852;4.438;2023-06-22T10:27:37;9.63;;;7.20;;
10769;SDS011;5437;50.852;4.438;2023-06-22T10:30:07;11.18;;;7.13;;
10769;SDS011;5437;50.852;4.438;2023-06-22T10:32:33;9.02;;;7.15;;
10769;SDS011;5437;50.852;4.438;2023-06-22T10:34:59;9.87;;;7.03;;
10769;SDS011;5437;50.852;4.438;2023-06-22T10:37:29;8.48;;;7.10;;
10769;SDS011;5437;50.852;4.438;2023-06-22T10:40:02;9.40;;;7.13;;
10769;SDS011;5437;50.852;4.438;2023-06-22T10:42:35;9.93;;;7.07;;
10769;SDS011;5437;50.852;4.438;2023-06-22T10:45:01;10.25;;;7.85;;
10769;SDS011;5437;50.852;4.438;2023-06-22T10:47:33;10.15;;;7.70;;
10769;SDS011;5437;50.852;4.438;2023-06-22T10:50:02;11.98;;;8.20;;
10769;SDS011;5437;50.852;4.438;2023-06-22T10:52:28;13.23;;;8.93;;
10769;SDS011;5437;50.852;4.438;2023-06-22T10:54:54;11.32;;;8.75;;
10769;SDS011;5437;50.852;4.438;2023-06-22T11:00:18;13.30;;;9.20;;
10769;SDS011;5437;50.852;4.438;2023-06-22T11:02:44;14.98;;;9.65;;
10769;SDS011;5437;50.852;4.438;2023-06-22T11:05:10;14.20;;;9.40;;
10769;SDS011;5437;50.852;4.438;2023-06-22T11:07:40;14.82;;;10.00;;
10769;SDS011;5437;50.852;4.438;2023-06-22T11:10:07;14.82;;;10.57;;
10769;SDS011;5437;50.852;4.438;2023-06-22T11:12:38;14.10;;;10.35;;
10769;SDS011;5437;50.852;4.438;2023-06-22T11:15:40;15.02;;;10.55;;
10769;SDS011;5437;50.852;4.438;2023-06-22T11:18:00;16.33;;;11.07;;
10769;SDS011;5437;50.852;4.438;2023-06-22T11:20:26;14.73;;;10.75;;
10769;SDS011;5437;50.852;4.438;2023-06-22T11:22:53;15.32;;;10.40;;
10769;SDS011;5437;50.852;4.438;2023-06-22T11:25:22;15.40;;;11.20;;
10769;SDS011;5437;50.852;4.438;2023-06-22T11:27:51;14.85;;;10.88;;
10769;SDS011;5437;50.852;4.438;2023-06-22T11:30:18;16.75;;;10.90;;
10769;SDS011;5437;50.852;4.438;2023-06-22T11:32:44;16.73;;;10.57;;
10769;SDS011;5437;50.852;4.438;2023-06-22T11:35:11;13.88;;;11.02;;
10769;SDS011;5437;50.852;4.438;2023-06-22T11:37:37;17.08;;;10.98;;
10769;SDS011;5437;50.852;4.438;2023-06-22T11:40:03;16.15;;;11.23;;
10769;SDS011;5437;50.852;4.438;2023-06-22T11:42:30;16.35;;;10.40;;
10769;SDS011;5437;50.852;4.438;2023-06-22T11:44:56;14.23;;;10.32;;
10769;SDS011;5437;50.852;4.438;2023-06-22T11:47:22;13.75;;;10.20;;
10769;SDS011;5437;50.852;4.438;2023-06-22T11:49:49;16.77;;;10.70;;
10769;SDS011;5437;50.852;4.438;2023-06-22T11:52:15;15.50;;;10.50;;
10769;SDS011;5437;50.852;4.438;2023-06-22T11:54:42;13.95;;;9.50;;
10769;SDS011;5437;50.852;4.438;2023-06-22T11:57:08;13.88;;;9.60;;
10769;SDS011;5437;50.852;4.438;2023-06-22T11:59:41;13.75;;;9.70;;
10769;SDS011;5437;50.852;4.438;2023-06-22T12:02:13;14.38;;;9.57;;
10769;SDS011;5437;50.852;4.438;2023-06-22T12:04:39;14.60;;;9.82;;
10769;SDS011;5437;50.852;4.438;2023-06-22T12:07:05;14.70;;;10.02;;
10769;SDS011;5437;50.852;4.438;2023-06-22T12:09:32;16.08;;;9.85;;
10769;SDS011;5437;50.852;4.438;2023-06-22T12:11:58;14.95;;;10.30;;
10769;SDS011;5437;50.852;4.438;2023-06-22T12:14:24;14.52;;;9.45;;
10769;SDS011;5437;50.852;4.438;2023-06-22T12:16:50;14.48;;;9.85;;
10769;SDS011;5437;50.852;4.438;2023-06-22T12:19:16;15.23;;;9.57;;
10769;SDS011;5437;50.852;4.438;2023-06-22T12:21:46;14.27;;;10.00;;
10769;SDS011;5437;50.852;4.438;2023-06-22T12:24:14;13.32;;;9.98;;
10769;SDS011;5437;50.852;4.438;2023-06-22T12:26:41;14.23;;;9.82;;
10769;SDS011;5437;50.852;4.438;2023-06-22T12:29:07;14.52;;;9.68;;
10769;SDS011;5437;50.852;4.438;2023-06-22T12:31:34;14.25;;;9.85;;
10769;SDS011;5437;50.852;4.438;2023-06-22T12:34:00;13.68;;;10.05;;
10769;SDS011;5437;50.852;4.438;2023-06-22T12:36:26;15.43;;;10.25;;
10769;SDS011;5437;50.852;4.438;2023-06-22T12:38:59;14.85;;;10.15;;
10769;SDS011;5437;50.852;4.438;2023-06-22T12:41:28;13.05;;;9.95;;
10769;SDS011;5437;50.852;4.438;2023-06-22T12:43:57;14.75;;;10.35;;
10769;SDS011;5437;50.852;4.438;2023-06-22T12:46:23;13.13;;;10.20;;
10769;SDS011;5437;50.852;4.438;2023-06-22T12:48:49;15.20;;;11.05;;
10769;SDS011;5437;50.852;4.438;2023-06-22T12:51:22;16.42;;;11.10;;
10769;SDS011;5437;50.852;4.438;2023-06-22T12:54:13;15.18;;;10.70;;
10769;SDS011;5437;50.852;4.438;2023-06-22T12:56:39;16.27;;;11.30;;
10769;SDS011;5437;50.852;4.438;2023-06-22T12:59:07;15.98;;;12.00;;
10769;SDS011;5437;50.852;4.438;2023-06-22T13:01:33;14.82;;;11.20;;
10769;SDS011;5437;50.852;4.438;2023-06-22T13:03:59;16.60;;;11.90;;
10769;SDS011;5437;50.852;4.438;2023-06-22T13:06:45;15.82;;;10.80;;
10769;SDS011;5437;50.852;4.438;2023-06-22T13:09:14;16.15;;;11.20;;
10769;SDS011;5437;50.852;4.438;2023-06-22T13:11:48;14.88;;;11.68;;
10769;SDS011;5437;50.852;4.438;2023-06-22T13:14:14;15.50;;;11.77;;
10769;SDS011;5437;50.852;4.438;2023-06-22T13:16:44;15.93;;;11.10;;
10769;SDS011;5437;50.852;4.438;2023-06-22T13:19:10;16.92;;;11.73;;
10769;SDS011;5437;50.852;4.438;2023-06-22T13:21:39;15.65;;;11.48;;
10769;SDS011;5437;50.852;4.438;2023-06-22T13:24:08;15.60;;;11.20;;
10769;SDS011;5437;50.852;4.438;2023-06-22T13:26:35;18.50;;;11.77;;
10769;SDS011;5437;50.852;4.438;2023-06-22T13:29:01;20.33;;;13.38;;
10769;SDS011;5437;50.852;4.438;2023-06-22T13:31:27;17.02;;;12.30;;
10769;SDS011;5437;50.852;4.438;2023-06-22T13:33:53;18.48;;;12.50;;
10769;SDS011;5437;50.852;4.438;2023-06-22T13:36:19;16.98;;;11.98;;
10769;SDS011;5437;50.852;4.438;2023-06-22T13:38:48;16.55;;;11.98;;
10769;SDS011;5437;50.852;4.438;2023-06-22T13:41:14;17.70;;;12.18;;
10769;SDS011;5437;50.852;4.438;2023-06-22T13:43:40;17.00;;;12.27;;
10769;SDS011;5437;50.852;4.438;2023-06-22T13:46:06;16.88;;;11.68;;
10769;SDS011;5437;50.852;4.438;2023-06-22T13:48:33;15.82;;;10.65;;
10769;SDS011;5437;50.852;4.438;2023-06-22T13:50:59;17.15;;;11.10;;
10769;SDS011;5437;50.852;4.438;2023-06-22T13:53:26;14.52;;;10.95;;
10769;SDS011;5437;50.852;4.438;2023-06-22T13:56:04;19.58;;;12.25;;
10769;SDS011;5437;50.852;4.438;2023-06-22T13:58:32;17.85;;;11.90;;
10769;SDS011;5437;50.852;4.438;2023-06-22T14:00:58;16.27;;;11.70;;
10769;SDS011;5437;50.852;4.438;2023-06-22T14:03:38;14.18;;;11.35;;
10769;SDS011;5437;50.852;4.438;2023-06-22T14:06:04;17.65;;;12.05;;
10769;SDS011;5437;50.852;4.438;2023-06-22T14:08:35;17.08;;;11.45;;
10769;SDS011;5437;50.852;4.438;2023-06-22T14:11:02;15.52;;;11.43;;
10769;SDS011;5437;50.852;4.438;2023-06-22T14:13:31;17.27;;;11.48;;
10769;SDS011;5437;50.852;4.438;2023-06-22T14:16:15;16.88;;;12.35;;
10769;SDS011;5437;50.852;4.438;2023-06-22T14:18:42;16.95;;;12.52;;
10769;SDS011;5437;50.852;4.438;2023-06-22T14:21:08;16.23;;;11.63;;
10769;SDS011;5437;50.852;4.438;2023-06-22T14:23:34;17.52;;;12.30;;
10769;SDS011;5437;50.852;4.438;2023-06-22T14:26:00;20.27;;;13.13;;
10769;SDS011;5437;50.852;4.438;2023-06-22T14:28:29;20.10;;;13.32;;
10769;SDS011;5437;50.852;4.438;2023-06-22T14:30:58;18.33;;;12.93;;
10769;SDS011;5437;50.852;4.438;2023-06-22T14:33:24;17.38;;;12.60;;
10769;SDS011;5437;50.852;4.438;2023-06-22T14:35:50;18.77;;;12.68;;
10769;SDS011;5437;50.852;4.438;2023-06-22T14:38:17;17.85;;;12.82;;
10769;SDS011;5437;50.852;4.438;2023-06-22T14:40:43;17.67;;;12.68;;
10769;SDS011;5437;50.852;4.438;2023-06-22T14:43:21;17.13;;;12.32;;
10769;SDS011;5437;50.852;4.438;2023-06-22T14:45:47;20.75;;;13.50;;
10769;SDS011;5437;50.852;4.438;2023-06-22T14:48:13;19.33;;;13.70;;
10769;SDS011;5437;50.852;4.438;2023-06-22T14:50:39;18.08;;;13.50;;
10769;SDS011;5437;50.852;4.438;2023-06-22T14:53:05;19.42;;;13.82;;
10769;SDS011;5437;50.852;4.438;2023-06-22T14:55:34;18.55;;;14.18;;
10769;SDS011;5437;50.852;4.438;2023-06-22T14:58:05;18.38;;;13.05;;
10769;SDS011;5437;50.852;4.438;2023-06-22T15:00:31;18.35;;;13.45;;
10769;SDS011;5437;50.852;4.438;2023-06-22T15:03:00;17.40;;;12.82;;
10769;SDS011;5437;50.852;4.438;2023-06-22T15:05:30;20.58;;;13.82;;
10769;SDS011;5437;50.852;4.438;2023-06-22T15:07:56;22.25;;;14.32;;